LSZR/ACH METAR and TAF weather

Enter ICAO airport designator
Station Type Date Time Source
LSZR METAR 2020/07/04 08:50 UTC NOAA

LSZR 040850Z VRB02KT 9999 SCT065 19/14 Q1022 NOSIG RMK E


Station Type Date Time Source
LSZR Decoded METAR 2020/07/04 08:50 UTC NOAA

Saint Gallen-Altenrhein, Switzerland (LSZR) 47-29-06N 009-33-43E
Jul 04, 2020 - 04:50 AM EDT / 2020.07.04 0850 UTC
Wind: Variable at 2 MPH (2 KT):0
Visibility: greater than 7 mile(s):0
Sky conditions: partly cloudy
Temperature: 66 F (19 C)
Dew Point: 57 F (14 C)
Relative Humidity: 72%
Pressure (altimeter): 30.18 in. Hg (1022 hPa)
ob: LSZR 040850Z VRB02KT 9999 SCT065 19/14 Q1022 NOSIG RMK E
cycle: 9

Station Type Date Time Source
LSZR TAF 2014/12/22 20:03 UTC NOAA

TAF
AMD LSZR 222054Z 2220/2224 CNL

Example: see airport list